Terminal Aerodrome Forecast
Issued by NWS Portland, ME

Home | Current Version | Previous Version | Text Only | Print | Product List | Glossary On
Versions: 1 2 3 4 5 6 7 8 9 10 11 12 13 14 15 16 17 18 19
000
FTUS41 KGYX 271120
TAFCON
TAF
KCON 271120Z 2712/2812 18005KT 6SM HZ SCT100 WS010/23030KT
     FM271400 20010G18KT P6SM SCT050
      TEMPO 2721/2724 P6SM -TSRA BKN050CB
     FM280000 20009KT 6SM HZ SCT010 SCT050=

USA.gov is the U.S. government's official web portal to all federal, state and local government web resources and services.